Time;durP1;ratioP1;P1;durP2;ratioP2;P2;SDS_P1;SDS_P2;PMS_P1;PMS_P2;Temp;Humidity;BMP_temperature;BMP_pressure;BME280_temperature;BME280_humidity;BME280_pressure;Samples;Min_cycle;Max_cycle;Signal;HPM_P1;HPM_P2
2022/07/03 00:00:38;;;;;;;3.20;2.90;;;;;;;;;;5013431;28;20413;-73
2022/07/03 00:03:04;;;;;;;6.53;3.03;;;;;;;;;;5013312;28;20556;-72
2022/07/03 00:05:30;;;;;;;3.47;3.17;;;;;;;;;;5013432;28;20448;-73
2022/07/03 00:07:57;;;;;;;3.13;2.83;;;;;;;;;;5013486;28;20407;-73
2022/07/03 00:10:23;;;;;;;3.03;2.83;;;;;;;;;;5013495;28;20424;-73
2022/07/03 00:12:49;;;;;;;3.43;3.07;;;;;;;;;;5013376;28;20409;-72
2022/07/03 00:15:15;;;;;;;3.17;3.07;;;;;;;;;;5013474;28;20512;-72
2022/07/03 00:17:41;;;;;;;3.30;3.10;;;;;;;;;;5015873;28;20410;-73
2022/07/03 00:20:07;;;;;;;6.53;3.30;;;;;;;;;;5017138;28;20419;-73
2022/07/03 00:22:33;;;;;;;2.90;2.80;;;;;;;;;;5017089;28;20480;-73
2022/07/03 00:25:06;;;;;;;3.17;3.07;;;;;;;;;;5017107;28;20881;-73
2022/07/03 00:27:33;;;;;;;2.50;2.40;;;;;;;;;;5017109;28;20424;-72
2022/07/03 00:30:00;;;;;;;3.23;2.97;;;;;;;;;;5017035;28;20448;-73
2022/07/03 00:32:27;;;;;;;8.13;3.03;;;;;;;;;;5016964;28;20496;-73
2022/07/03 00:34:54;;;;;;;3.17;2.70;;;;;;;;;;5016880;28;20405;-73
2022/07/03 00:37:20;;;;;;;2.77;2.77;;;;;;;;;;4999214;28;20927;-73
2022/07/03 00:39:48;;;;;;;3.90;3.70;;;;;;;;;;5016880;28;20423;-73
2022/07/03 00:42:14;;;;;;;4.10;3.90;;;;;;;;;;5016776;28;21028;-73
2022/07/03 00:45:06;;;;;;;3.33;3.23;;;;;;;;;;5016772;28;20813;-73
2022/07/03 00:47:35;;;;;;;3.53;2.80;;;;;;;;;;5012216;28;20798;-72
2022/07/03 00:50:05;;;;;;;2.90;2.80;;;;;;;;;;5016676;28;20461;-71
2022/07/03 00:52:33;;;;;;;3.23;3.13;;;;;;;;;;5016642;28;20766;-72
2022/07/03 00:55:00;;;;;;;3.20;3.00;;;;;;;;;;5016549;28;20495;-72
2022/07/03 00:57:29;;;;;;;3.37;3.07;;;;;;;;;;5016457;28;20412;-72
2022/07/03 00:59:57;;;;;;;3.03;2.83;;;;;;;;;;5016398;28;20886;-72
2022/07/03 01:02:29;;;;;;;2.97;2.87;;;;;;;;;;5016215;28;20498;-72
2022/07/03 01:04:58;;;;;;;3.30;3.10;;;;;;;;;;5016345;28;20408;-72
2022/07/03 01:07:32;;;;;;;2.87;2.80;;;;;;;;;;4998677;28;20417;-72
2022/07/03 01:10:05;;;;;;;4.47;3.40;;;;;;;;;;5016316;28;20405;-72
2022/07/03 01:12:46;;;;;;;6.53;3.03;;;;;;;;;;5016439;28;20812;-72
2022/07/03 01:15:16;;;;;;;3.33;3.13;;;;;;;;;;5016175;28;20423;-72
2022/07/03 01:17:48;;;;;;;2.87;2.77;;;;;;;;;;5016129;28;20580;-73
2022/07/03 01:20:15;;;;;;;3.10;2.90;;;;;;;;;;5016055;28;20900;-72
2022/07/03 01:22:45;;;;;;;4.10;2.90;;;;;;;;;;5015951;28;20471;-72
2022/07/03 01:25:17;;;;;;;3.50;3.37;;;;;;;;;;5016039;28;20882;-73
2022/07/03 01:27:43;;;;;;;2.77;2.63;;;;;;;;;;5015693;28;20896;-73
2022/07/03 01:30:10;;;;;;;3.90;3.40;;;;;;;;;;5015314;28;20400;-73
2022/07/03 01:32:42;;;;;;;3.20;3.00;;;;;;;;;;5015909;28;20456;-73
2022/07/03 01:35:09;;;;;;;4.73;3.17;;;;;;;;;;5015715;28;20491;-72
2022/07/03 01:37:35;;;;;;;3.03;2.83;;;;;;;;;;5015744;28;20497;-73
2022/07/03 01:40:04;;;;;;;3.30;3.00;;;;;;;;;;5015718;28;20404;-73
2022/07/03 01:42:32;;;;;;;4.13;2.67;;;;;;;;;;5015894;28;20477;-73
2022/07/03 01:44:59;;;;;;;2.90;2.80;;;;;;;;;;5015629;28;20976;-73
2022/07/03 01:47:25;;;;;;;2.50;2.50;;;;;;;;;;4998008;28;20422;-73
2022/07/03 01:49:52;;;;;;;2.77;2.67;;;;;;;;;;5015542;28;20411;-73
2022/07/03 01:52:19;;;;;;;2.90;2.80;;;;;;;;;;5015686;28;20428;-72
2022/07/03 01:54:46;;;;;;;3.60;2.90;;;;;;;;;;4997810;28;20432;-72
2022/07/03 01:57:12;;;;;;;3.17;2.97;;;;;;;;;;4997825;28;20950;-72
2022/07/03 01:59:38;;;;;;;2.53;2.33;;;;;;;;;;5015376;28;20410;-72
2022/07/03 02:02:07;;;;;;;3.10;3.00;;;;;;;;;;4997425;28;20496;-73
2022/07/03 02:04:34;;;;;;;8.23;3.10;;;;;;;;;;5015258;28;20424;-73
2022/07/03 02:07:03;;;;;;;3.30;3.20;;;;;;;;;;5015175;28;20521;-72
2022/07/03 02:09:49;;;;;;;3.60;3.27;;;;;;;;;;5015468;28;20407;-73
2022/07/03 02:12:17;;;;;;;4.83;3.10;;;;;;;;;;5015031;28;20428;-73
2022/07/03 02:14:48;;;;;;;5.20;2.60;;;;;;;;;;5015051;28;20467;-72
2022/07/03 02:17:18;;;;;;;3.10;3.00;;;;;;;;;;5015010;28;20410;-73
2022/07/03 02:19:52;;;;;;;7.33;2.77;;;;;;;;;;5014987;28;20476;-73
2022/07/03 02:22:23;;;;;;;3.07;2.93;;;;;;;;;;5014861;28;20611;-73
2022/07/03 02:24:49;;;;;;;11.93;3.60;;;;;;;;;;5014926;28;20534;-73
2022/07/03 02:27:17;;;;;;;3.17;2.93;;;;;;;;;;5014794;28;20422;-73
2022/07/03 02:29:59;;;;;;;3.60;3.40;;;;;;;;;;5014782;28;20405;-73
2022/07/03 02:32:26;;;;;;;3.00;2.90;;;;;;;;;;5014794;28;20405;-73
2022/07/03 02:35:05;;;;;;;3.30;3.00;;;;;;;;;;5014703;28;20436;-73
2022/07/03 02:37:33;;;;;;;3.50;3.40;;;;;;;;;;5014909;28;20408;-73
2022/07/03 02:40:05;;;;;;;5.13;3.00;;;;;;;;;;5014547;28;20970;-73
2022/07/03 02:42:50;;;;;;;2.70;2.53;;;;;;;;;;5014473;28;20473;-73
2022/07/03 02:45:18;;;;;;;3.00;2.90;;;;;;;;;;5014460;28;20393;-73
2022/07/03 02:48:03;;;;;;;3.07;2.97;;;;;;;;;;5014461;28;20413;-73
2022/07/03 02:50:29;;;;;;;3.37;3.17;;;;;;;;;;5014380;28;20412;-73
2022/07/03 02:52:55;;;;;;;2.87;2.60;;;;;;;;;;5014474;28;20415;-73
2022/07/03 02:55:30;;;;;;;9.57;2.83;;;;;;;;;;5014341;28;20499;-73
2022/07/03 02:58:03;;;;;;;7.07;2.73;;;;;;;;;;5014384;28;20426;-73
2022/07/03 03:00:34;;;;;;;2.70;2.50;;;;;;;;;;5014326;28;20492;-73
2022/07/03 03:03:01;;;;;;;6.37;2.83;;;;;;;;;;5014068;28;20557;-73
2022/07/03 03:05:28;;;;;;;7.03;2.87;;;;;;;;;;5014136;28;20909;-73
2022/07/03 03:08:13;;;;;;;2.80;2.63;;;;;;;;;;5014076;28;20504;-73
2022/07/03 03:10:40;;;;;;;8.20;3.10;;;;;;;;;;5014148;28;20911;-74
2022/07/03 03:13:10;;;;;;;2.40;2.40;;;;;;;;;;5014034;28;20444;-73
2022/07/03 03:15:37;;;;;;;3.87;3.03;;;;;;;;;;5014094;28;20892;-73
2022/07/03 03:18:05;;;;;;;2.50;2.50;;;;;;;;;;5013999;28;20489;-73
2022/07/03 03:20:32;;;;;;;2.93;2.83;;;;;;;;;;5014174;28;20505;-73
2022/07/03 03:23:10;;;;;;;5.27;2.90;;;;;;;;;;5013816;28;20578;-72
2022/07/03 03:25:37;;;;;;;7.80;2.80;;;;;;;;;;5013898;28;20913;-73
2022/07/03 03:28:03;;;;;;;2.70;2.70;;;;;;;;;;5013836;28;20463;-73
2022/07/03 03:30:29;;;;;;;2.97;2.77;;;;;;;;;;5013863;28;20404;-73
2022/07/03 03:32:55;;;;;;;2.80;2.60;;;;;;;;;;4996189;28;20489;-73
2022/07/03 03:35:21;;;;;;;2.83;2.63;;;;;;;;;;5013796;28;20771;-73
2022/07/03 03:37:48;;;;;;;8.03;3.27;;;;;;;;;;5013762;28;20416;-73
2022/07/03 03:40:15;;;;;;;2.60;2.60;;;;;;;;;;5013983;28;20740;-73
2022/07/03 03:42:42;;;;;;;6.10;2.50;;;;;;;;;;5013865;28;20515;-72
2022/07/03 03:45:08;;;;;;;3.30;2.77;;;;;;;;;;5013608;28;20490;-73
2022/07/03 03:47:34;;;;;;;4.10;2.63;;;;;;;;;;5013968;28;20420;-73
2022/07/03 03:50:00;;;;;;;2.90;2.80;;;;;;;;;;5013565;28;20881;-73
2022/07/03 03:52:26;;;;;;;3.03;2.80;;;;;;;;;;5015765;28;20467;-73
2022/07/03 03:54:52;;;;;;;2.40;2.30;;;;;;;;;;5017696;28;20407;-73
2022/07/03 03:57:19;;;;;;;2.50;2.40;;;;;;;;;;5017578;28;20409;-73
2022/07/03 03:59:46;;;;;;;2.37;2.27;;;;;;;;;;5017855;28;20416;-73
2022/07/03 04:02:12;;;;;;;2.77;2.67;;;;;;;;;;5017398;28;21067;-73
2022/07/03 04:04:38;;;;;;;2.57;2.37;;;;;;;;;;5017694;28;20415;-73
2022/07/03 04:07:04;;;;;;;2.80;2.70;;;;;;;;;;4999788;28;20431;-73
2022/07/03 04:09:30;;;;;;;2.30;2.30;;;;;;;;;;5017423;28;20404;-73
2022/07/03 04:11:56;;;;;;;2.30;2.20;;;;;;;;;;5017403;28;20409;-73
2022/07/03 04:14:22;;;;;;;2.33;2.33;;;;;;;;;;5017371;28;20923;-73
2022/07/03 04:16:48;;;;;;;2.50;2.50;;;;;;;;;;5017258;28;20400;-73
2022/07/03 04:19:14;;;;;;;3.47;2.83;;;;;;;;;;4999675;28;20419;-73
2022/07/03 04:21:41;;;;;;;2.70;2.67;;;;;;;;;;5017078;28;20475;-73
2022/07/03 04:24:07;;;;;;;2.30;2.30;;;;;;;;;;4999455;28;20928;-72
2022/07/03 04:26:33;;;;;;;2.03;2.03;;;;;;;;;;4999494;28;20519;-72
2022/07/03 04:28:59;;;;;;;1.90;1.90;;;;;;;;;;5017075;28;20781;-73
2022/07/03 04:31:25;;;;;;;2.60;2.50;;;;;;;;;;5016975;28;20412;-72
2022/07/03 04:33:51;;;;;;;2.70;2.47;;;;;;;;;;5016981;28;20431;-72
2022/07/03 04:36:17;;;;;;;2.40;2.30;;;;;;;;;;5016784;28;20968;-72
2022/07/03 04:38:43;;;;;;;2.37;2.27;;;;;;;;;;5016859;28;20891;-72
2022/07/03 04:41:09;;;;;;;2.40;2.30;;;;;;;;;;5016809;28;20413;-73
2022/07/03 04:43:38;;;;;;;2.83;2.60;;;;;;;;;;5016867;28;20473;-72
2022/07/03 04:46:04;;;;;;;2.27;2.17;;;;;;;;;;5016821;28;20395;-72
2022/07/03 04:48:30;;;;;;;3.03;2.80;;;;;;;;;;4999127;28;20421;-72
2022/07/03 04:50:57;;;;;;;2.83;2.63;;;;;;;;;;5016582;28;20429;-72
2022/07/03 04:53:23;;;;;;;2.90;2.80;;;;;;;;;;5016718;28;20466;-72
2022/07/03 04:55:49;;;;;;;2.40;2.33;;;;;;;;;;5016528;28;20827;-72
2022/07/03 04:58:15;;;;;;;5.07;2.97;;;;;;;;;;5016519;28;20417;-72
2022/07/03 05:00:41;;;;;;;5.10;2.77;;;;;;;;;;5016483;28;20406;-72
2022/07/03 05:03:07;;;;;;;2.63;2.43;;;;;;;;;;5014925;28;20492;-72
2022/07/03 05:05:33;;;;;;;2.73;2.73;;;;;;;;;;5016337;28;20881;-72
2022/07/03 05:08:00;;;;;;;3.07;2.87;;;;;;;;;;5016351;28;20463;-72
2022/07/03 05:10:26;;;;;;;3.27;2.80;;;;;;;;;;5016522;28;20416;-72
2022/07/03 05:12:52;;;;;;;2.40;2.27;;;;;;;;;;5016255;28;20418;-72
2022/07/03 05:15:18;;;;;;;2.70;2.50;;;;;;;;;;5016234;28;20564;-72
2022/07/03 05:17:44;;;;;;;2.40;2.20;;;;;;;;;;5016157;28;20406;-72
2022/07/03 05:20:29;;;;;;;2.43;2.33;;;;;;;;;;5016091;28;20912;-72
2022/07/03 05:22:58;;;;;;;2.07;2.07;;;;;;;;;;5015873;28;20478;-72
2022/07/03 05:25:24;;;;;;;3.83;3.00;;;;;;;;;;5015889;28;20416;-71
2022/07/03 05:27:52;;;;;;;2.67;2.57;;;;;;;;;;5015802;28;20416;-72
2022/07/03 05:30:18;;;;;;;2.40;2.30;;;;;;;;;;5015803;28;20541;-72
2022/07/03 05:32:44;;;;;;;4.10;1.93;;;;;;;;;;4998146;28;20434;-72
2022/07/03 05:35:10;;;;;;;2.57;2.37;;;;;;;;;;5015795;28;20469;-72
2022/07/03 05:37:36;;;;;;;2.37;2.37;;;;;;;;;;5015584;28;20420;-72
2022/07/03 05:40:04;;;;;;;1.57;1.47;;;;;;;;;;5015549;28;20410;-72
2022/07/03 05:42:29;;;;;;;2.63;2.63;;;;;;;;;;4997867;28;20490;-72
2022/07/03 05:44:55;;;;;;;3.70;2.03;;;;;;;;;;5015515;28;20403;-72
2022/07/03 05:47:22;;;;;;;2.03;1.93;;;;;;;;;;5015507;28;20405;-72
2022/07/03 05:49:47;;;;;;;2.53;1.70;;;;;;;;;;5015500;28;20408;-72
2022/07/03 05:52:14;;;;;;;6.93;2.83;;;;;;;;;;5015685;28;20485;-72
2022/07/03 05:54:40;;;;;;;12.10;9.57;;;;;;;;;;5015497;28;20404;-72
2022/07/03 05:57:06;;;;;;;3.70;2.33;;;;;;;;;;5015389;28;20469;-72
2022/07/03 05:59:32;;;;;;;2.63;2.50;;;;;;;;;;5015328;28;20404;-72
2022/07/03 06:01:58;;;;;;;2.00;2.00;;;;;;;;;;4997833;28;20483;-72
2022/07/03 06:04:24;;;;;;;1.90;1.80;;;;;;;;;;5015257;28;20409;-72
2022/07/03 06:06:50;;;;;;;1.37;1.37;;;;;;;;;;4997646;28;20420;-72
2022/07/03 06:09:15;;;;;;;1.73;1.63;;;;;;;;;;4997534;28;20522;-72
2022/07/03 06:11:41;;;;;;;2.77;2.20;;;;;;;;;;5015090;28;20420;-72
2022/07/03 06:14:07;;;;;;;5.43;2.40;;;;;;;;;;5014771;28;20919;-72
2022/07/03 06:16:33;;;;;;;1.80;1.80;;;;;;;;;;5014883;28;20495;-72
2022/07/03 06:18:59;;;;;;;4.00;2.03;;;;;;;;;;5015021;28;20403;-72
2022/07/03 06:21:25;;;;;;;2.43;2.20;;;;;;;;;;5014745;28;20428;-72
2022/07/03 06:23:51;;;;;;;10.10;9.30;;;;;;;;;;5014824;28;20841;-72
2022/07/03 06:26:17;;;;;;;1.80;1.80;;;;;;;;;;5014894;28;20421;-72
2022/07/03 06:28:43;;;;;;;2.00;2.00;;;;;;;;;;5014818;28;20418;-72
2022/07/03 06:31:10;;;;;;;3.03;2.80;;;;;;;;;;5014839;28;20847;-72
2022/07/03 06:33:36;;;;;;;2.00;2.00;;;;;;;;;;5014765;28;20467;-72
2022/07/03 06:36:02;;;;;;;1.87;1.70;;;;;;;;;;5014877;28;20807;-72
2022/07/03 06:38:28;;;;;;;1.37;1.27;;;;;;;;;;5014676;28;20955;-73
2022/07/03 06:40:54;;;;;;;3.67;1.60;;;;;;;;;;5014572;28;20457;-72
2022/07/03 06:43:20;;;;;;;1.10;1.10;;;;;;;;;;5014482;28;20507;-72
2022/07/03 06:45:46;;;;;;;3.80;1.40;;;;;;;;;;5014570;28;20400;-72
2022/07/03 06:48:12;;;;;;;1.40;1.40;;;;;;;;;;5014427;28;20458;-72
2022/07/03 06:50:38;;;;;;;1.10;1.10;;;;;;;;;;5014646;28;20511;-72
2022/07/03 06:53:04;;;;;;;1.30;1.20;;;;;;;;;;5014403;28;20449;-72
2022/07/03 06:55:30;;;;;;;1.50;1.37;;;;;;;;;;5014315;28;20542;-72
2022/07/03 06:57:55;;;;;;;1.10;1.10;;;;;;;;;;5014285;28;20420;-72
2022/07/03 07:00:21;;;;;;;1.23;1.23;;;;;;;;;;4996559;28;20466;-72
2022/07/03 07:02:47;;;;;;;1.27;1.23;;;;;;;;;;5014020;28;20492;-72
2022/07/03 07:05:13;;;;;;;2.53;1.13;;;;;;;;;;5014115;28;20829;-72
2022/07/03 07:07:39;;;;;;;2.10;0.90;;;;;;;;;;5014075;28;20423;-72
2022/07/03 07:10:06;;;;;;;1.17;1.17;;;;;;;;;;5014141;28;20441;-71
2022/07/03 07:12:32;;;;;;;1.00;1.00;;;;;;;;;;5014073;28;20525;-72
2022/07/03 07:14:57;;;;;;;1.00;1.00;;;;;;;;;;5014046;28;20949;-72
2022/07/03 07:17:23;;;;;;;9.13;4.27;;;;;;;;;;5014003;28;20426;-72
2022/07/03 07:19:49;;;;;;;1.03;1.03;;;;;;;;;;5013913;28;20502;-71
2022/07/03 07:22:15;;;;;;;1.30;1.20;;;;;;;;;;5013816;28;20478;-72
2022/07/03 07:24:41;;;;;;;1.03;1.03;;;;;;;;;;5013906;28;20898;-72
2022/07/03 07:27:07;;;;;;;1.43;1.27;;;;;;;;;;5013452;28;20476;-71
2022/07/03 07:29:33;;;;;;;1.10;1.10;;;;;;;;;;5013877;28;20404;-72
2022/07/03 07:31:59;;;;;;;2.00;1.90;;;;;;;;;;5013766;28;21004;-72
2022/07/03 07:34:25;;;;;;;1.43;1.43;;;;;;;;;;4996134;28;20439;-70
2022/07/03 07:36:51;;;;;;;3.27;1.13;;;;;;;;;;5013711;28;20427;-72
2022/07/03 07:39:17;;;;;;;2.70;1.47;;;;;;;;;;5013728;28;20818;-71
2022/07/03 07:41:43;;;;;;;3.17;1.00;;;;;;;;;;5013609;28;20461;-72
2022/07/03 07:44:09;;;;;;;0.87;0.87;;;;;;;;;;5013675;28;20412;-72
2022/07/03 07:46:35;;;;;;;2.73;1.10;;;;;;;;;;5013566;28;20732;-72
2022/07/03 07:49:01;;;;;;;2.50;1.03;;;;;;;;;;5014076;28;20436;-72
2022/07/03 07:51:27;;;;;;;1.70;1.17;;;;;;;;;;5013414;28;20813;-72
2022/07/03 07:53:57;;;;;;;1.00;0.90;;;;;;;;;;5013530;28;20411;-72
2022/07/03 07:56:22;;;;;;;1.53;1.00;;;;;;;;;;5013645;28;20495;-72
2022/07/03 07:58:51;;;;;;;1.10;1.10;;;;;;;;;;5013562;28;20511;-72
2022/07/03 08:06:50;;;;;;;1.50;1.37;;;;;;;;;;5013736;28;20463;-72
2022/07/03 08:09:19;;;;;;;1.10;1.10;;;;;;;;;;5013394;28;20792;-71
2022/07/03 08:11:45;;;;;;;1.30;1.20;;;;;;;;;;5013394;28;20398;-72
2022/07/03 08:14:12;;;;;;;1.27;1.20;;;;;;;;;;5013438;28;20421;-72
2022/07/03 08:16:41;;;;;;;2.10;1.10;;;;;;;;;;5013358;28;20495;-71
2022/07/03 08:19:07;;;;;;;1.13;1.13;;;;;;;;;;4996047;28;20846;-72
2022/07/03 08:21:33;;;;;;;0.80;0.70;;;;;;;;;;5013190;28;20490;-72
2022/07/03 08:23:59;;;;;;;0.90;0.90;;;;;;;;;;5013345;28;20504;-71
2022/07/03 08:26:25;;;;;;;1.60;1.20;;;;;;;;;;5013265;28;20418;-72
2022/07/03 08:28:51;;;;;;;2.10;0.97;;;;;;;;;;5013275;28;20416;-72
2022/07/03 08:31:17;;;;;;;0.80;0.80;;;;;;;;;;5013210;28;20961;-72
2022/07/03 08:33:42;;;;;;;1.23;1.13;;;;;;;;;;4995660;28;20831;-72
2022/07/03 08:36:08;;;;;;;2.20;0.73;;;;;;;;;;5013104;28;20431;-71
2022/07/03 08:38:35;;;;;;;1.47;1.00;;;;;;;;;;5015305;28;20450;-71
2022/07/03 08:41:01;;;;;;;2.10;1.13;;;;;;;;;;5017098;28;20489;-71
2022/07/03 08:43:27;;;;;;;1.57;0.97;;;;;;;;;;5016780;28;20475;-71
2022/07/03 08:45:54;;;;;;;5.40;1.00;;;;;;;;;;5016750;28;20492;-72
2022/07/03 08:48:22;;;;;;;1.33;1.33;;;;;;;;;;5016638;28;20412;-71
2022/07/03 08:50:48;;;;;;;4.40;1.47;;;;;;;;;;5016642;28;20411;-71
2022/07/03 08:53:14;;;;;;;2.93;0.90;;;;;;;;;;5016635;28;20412;-71
2022/07/03 08:55:40;;;;;;;0.60;0.60;;;;;;;;;;4998914;28;20425;-71
2022/07/03 08:58:10;;;;;;;2.77;0.97;;;;;;;;;;5016552;28;20511;-71
2022/07/03 09:00:56;;;;;;;0.93;0.80;;;;;;;;;;5016472;28;20410;-71
2022/07/03 09:03:24;;;;;;;4.20;0.83;;;;;;;;;;5016153;28;20515;-71
2022/07/03 09:05:51;;;;;;;0.90;0.70;;;;;;;;;;5016368;28;20519;-71
2022/07/03 09:08:18;;;;;;;0.90;0.90;;;;;;;;;;5016259;28;20465;-71
2022/07/03 09:10:44;;;;;;;3.23;0.80;;;;;;;;;;5016240;28;20418;-72
2022/07/03 09:13:11;;;;;;;2.07;0.83;;;;;;;;;;5016320;28;20881;-71
2022/07/03 09:15:37;;;;;;;0.93;0.87;;;;;;;;;;5016022;28;20498;-72
2022/07/03 09:18:05;;;;;;;0.87;0.87;;;;;;;;;;5015956;28;20915;-71
2022/07/03 09:20:33;;;;;;;1.47;0.67;;;;;;;;;;5015933;28;20419;-70
2022/07/03 09:23:11;;;;;;;0.57;0.57;;;;;;;;;;5015670;28;20467;-71
2022/07/03 09:25:50;;;;;;;1.80;0.63;;;;;;;;;;5015812;28;20406;-71
2022/07/03 09:28:16;;;;;;;1.63;0.77;;;;;;;;;;5016099;28;20400;-72
2022/07/03 09:30:56;;;;;;;0.90;0.90;;;;;;;;;;5016132;28;20579;-71
2022/07/03 09:33:22;;;;;;;0.53;0.53;;;;;;;;;;5015827;28;20407;-71
2022/07/03 09:35:53;;;;;;;1.87;0.70;;;;;;;;;;5015637;28;20783;-72
2022/07/03 09:38:19;;;;;;;0.60;0.60;;;;;;;;;;4997938;28;20427;-71
2022/07/03 09:40:57;;;;;;;0.70;0.70;;;;;;;;;;5015537;28;20416;-72
2022/07/03 09:43:32;;;;;;;0.60;0.60;;;;;;;;;;5015445;28;20982;-71
2022/07/03 09:46:04;;;;;;;0.80;0.50;;;;;;;;;;5015693;28;20400;-72
2022/07/03 09:48:34;;;;;;;2.00;0.70;;;;;;;;;;5015642;28;20412;-71
2022/07/03 09:51:15;;;;;;;1.77;1.10;;;;;;;;;;5014481;28;20897;-72
2022/07/03 09:53:44;;;;;;;1.23;0.90;;;;;;;;;;5015056;28;20919;-71
2022/07/03 09:56:10;;;;;;;21.10;19.17;;;;;;;;;;5015213;28;20516;-72
2022/07/03 09:58:36;;;;;;;0.90;0.90;;;;;;;;;;5015525;28;20409;-72
2022/07/03 10:01:22;;;;;;;2.47;0.97;;;;;;;;;;5015364;28;20413;-72
2022/07/03 10:03:48;;;;;;;1.77;0.80;;;;;;;;;;5010774;28;20480;-71
2022/07/03 10:06:14;;;;;;;0.70;0.70;;;;;;;;;;5015296;28;20536;-71
2022/07/03 10:08:42;;;;;;;0.63;0.63;;;;;;;;;;5015238;28;20409;-71
2022/07/03 10:11:09;;;;;;;11.20;0.90;;;;;;;;;;5015217;28;20452;-71
2022/07/03 10:13:38;;;;;;;0.60;0.60;;;;;;;;;;5015079;28;20941;-71
2022/07/03 10:16:05;;;;;;;1.00;0.67;;;;;;;;;;5015031;28;20409;-72
2022/07/03 10:18:32;;;;;;;0.73;0.73;;;;;;;;;;5015011;28;20885;-71
2022/07/03 10:20:59;;;;;;;0.83;0.60;;;;;;;;;;5014875;28;20429;-71
2022/07/03 10:23:27;;;;;;;0.70;0.70;;;;;;;;;;5013632;28;20468;-70
2022/07/03 10:25:54;;;;;;;1.13;0.60;;;;;;;;;;5014853;28;20962;-71
2022/07/03 10:28:20;;;;;;;4.83;0.80;;;;;;;;;;5014895;28;20412;-71
2022/07/03 10:30:47;;;;;;;0.67;0.67;;;;;;;;;;5014852;28;20881;-71
2022/07/03 10:33:14;;;;;;;0.60;0.60;;;;;;;;;;5014801;28;20495;-71
2022/07/03 10:35:42;;;;;;;0.83;0.63;;;;;;;;;;5014658;28;20908;-70
2022/07/03 10:38:15;;;;;;;0.90;0.40;;;;;;;;;;5014748;28;20405;-71
2022/07/03 10:46:30;;;;;;;0.50;0.50;;;;;;;;;;5014787;28;20463;-72
2022/07/03 10:48:57;;;;;;;1.87;0.70;;;;;;;;;;5014501;28;20401;-71
2022/07/03 10:51:24;;;;;;;0.77;0.77;;;;;;;;;;5014431;28;20431;-73
2022/07/03 10:53:50;;;;;;;2.20;0.80;;;;;;;;;;5013113;28;20416;-74
2022/07/03 10:56:16;;;;;;;1.17;0.77;;;;;;;;;;5014300;28;20451;-74
2022/07/03 10:58:55;;;;;;;0.73;0.73;;;;;;;;;;5013067;28;20432;-74
2022/07/03 11:01:32;;;;;;;0.50;0.50;;;;;;;;;;5014250;28;20404;-74
2022/07/03 11:03:59;;;;;;;3.40;0.60;;;;;;;;;;5014160;28;20499;-74
2022/07/03 11:06:43;;;;;;;0.50;0.50;;;;;;;;;;5014127;28;20779;-74
2022/07/03 11:09:12;;;;;;;1.17;0.50;;;;;;;;;;5014019;28;20421;-74
2022/07/03 11:11:54;;;;;;;0.80;0.80;;;;;;;;;;5014093;28;20409;-74
2022/07/03 11:14:21;;;;;;;0.50;0.50;;;;;;;;;;5014142;28;20405;-73
2022/07/03 11:16:47;;;;;;;0.60;0.60;;;;;;;;;;5014051;28;20410;-73
2022/07/03 11:19:13;;;;;;;0.80;0.70;;;;;;;;;;5014073;28;20605;-74
2022/07/03 11:21:42;;;;;;;0.70;0.70;;;;;;;;;;5013844;28;20782;-74
2022/07/03 11:24:15;;;;;;;0.93;0.77;;;;;;;;;;5013967;28;20511;-74
2022/07/03 11:26:41;;;;;;;1.27;0.70;;;;;;;;;;5013932;28;20409;-74
2022/07/03 11:29:07;;;;;;;0.70;0.50;;;;;;;;;;5013802;28;20416;-74
2022/07/03 11:31:33;;;;;;;0.60;0.60;;;;;;;;;;5013992;28;20863;-73
2022/07/03 11:33:59;;;;;;;0.60;0.60;;;;;;;;;;5013717;28;20413;-74
2022/07/03 11:36:26;;;;;;;0.97;0.70;;;;;;;;;;5013678;28;20495;-72
2022/07/03 11:38:55;;;;;;;0.87;0.83;;;;;;;;;;5013622;28;20448;-70
2022/07/03 11:41:22;;;;;;;0.87;0.70;;;;;;;;;;5013532;28;20417;-73
2022/07/03 11:43:48;;;;;;;1.63;0.60;;;;;;;;;;5013714;28;20937;-73
2022/07/03 11:46:18;;;;;;;0.83;0.60;;;;;;;;;;5013594;28;20413;-74
2022/07/03 11:48:44;;;;;;;0.70;0.70;;;;;;;;;;5013700;28;20441;-74
2022/07/03 11:51:10;;;;;;;0.60;0.60;;;;;;;;;;5013489;28;20785;-74
2022/07/03 11:53:40;;;;;;;6.63;0.60;;;;;;;;;;5013471;28;20409;-74
2022/07/03 11:56:06;;;;;;;0.60;0.60;;;;;;;;;;5013644;28;20425;-74
2022/07/03 11:58:43;;;;;;;0.87;0.73;;;;;;;;;;5013556;28;20444;-74
2022/07/03 12:01:30;;;;;;;0.57;0.57;;;;;;;;;;5013518;28;20424;-75
2022/07/03 12:04:05;;;;;;;0.80;0.80;;;;;;;;;;5013397;28;20464;-74
2022/07/03 12:06:37;;;;;;;0.80;0.80;;;;;;;;;;5013408;28;20409;-73
2022/07/03 12:09:11;;;;;;;0.80;0.80;;;;;;;;;;5013452;28;20462;-72
2022/07/03 12:11:37;;;;;;;0.80;0.80;;;;;;;;;;5013414;28;20401;-74
2022/07/03 12:14:03;;;;;;;0.80;0.60;;;;;;;;;;5016503;28;20884;-74
2022/07/03 12:16:33;;;;;;;0.90;0.73;;;;;;;;;;4999697;28;20430;-74
2022/07/03 12:19:04;;;;;;;0.93;0.60;;;;;;;;;;5017343;28;20417;-74
2022/07/03 12:21:36;;;;;;;0.70;0.70;;;;;;;;;;4999565;28;20428;-74
2022/07/03 12:24:09;;;;;;;3.50;0.80;;;;;;;;;;5017262;28;20483;-74
2022/07/03 12:26:38;;;;;;;0.50;0.50;;;;;;;;;;5017019;28;20404;-75
2022/07/03 12:29:06;;;;;;;2.63;0.73;;;;;;;;;;5017086;28;20389;-73
2022/07/03 12:31:32;;;;;;;0.90;0.70;;;;;;;;;;5016977;28;20401;-75
2022/07/03 12:33:59;;;;;;;1.90;0.60;;;;;;;;;;5017067;28;20476;-74
2022/07/03 12:36:26;;;;;;;0.83;0.83;;;;;;;;;;5017017;28;20783;-73
2022/07/03 12:38:53;;;;;;;0.67;0.67;;;;;;;;;;5016966;28;20389;-72
2022/07/03 12:41:20;;;;;;;0.60;0.60;;;;;;;;;;5016982;28;20452;-72
2022/07/03 12:43:48;;;;;;;0.93;0.70;;;;;;;;;;5016788;28;20460;-72
2022/07/03 12:46:17;;;;;;;0.93;0.63;;;;;;;;;;5017002;28;20488;-72
2022/07/03 12:48:56;;;;;;;0.67;0.67;;;;;;;;;;5017046;28;20412;-72
2022/07/03 12:51:42;;;;;;;0.73;0.73;;;;;;;;;;5016681;28;20951;-72
2022/07/03 12:54:09;;;;;;;1.00;1.00;;;;;;;;;;5016615;28;20405;-72
2022/07/03 12:56:35;;;;;;;0.70;0.70;;;;;;;;;;5016551;28;20436;-72
2022/07/03 12:59:16;;;;;;;2.77;0.90;;;;;;;;;;5016556;28;20437;-72
2022/07/03 13:01:43;;;;;;;0.70;0.70;;;;;;;;;;4998811;28;20420;-73
2022/07/03 13:04:14;;;;;;;0.53;0.53;;;;;;;;;;5016291;28;20487;-72
2022/07/03 13:06:40;;;;;;;0.50;0.50;;;;;;;;;;4999027;28;20866;-74
2022/07/03 13:09:06;;;;;;;0.70;0.70;;;;;;;;;;5016560;28;20409;-75
2022/07/03 13:11:33;;;;;;;1.27;0.70;;;;;;;;;;4998738;28;20417;-74
2022/07/03 13:14:12;;;;;;;0.93;0.93;;;;;;;;;;5016277;28;20483;-72
2022/07/03 13:16:46;;;;;;;1.27;0.70;;;;;;;;;;5016215;28;20492;-71
2022/07/03 13:19:14;;;;;;;0.60;0.60;;;;;;;;;;5016249;28;20417;-74
2022/07/03 13:21:40;;;;;;;1.33;0.90;;;;;;;;;;5015973;28;20749;-72
2022/07/03 13:24:07;;;;;;;1.20;1.00;;;;;;;;;;5015315;28;20413;-72
2022/07/03 13:26:33;;;;;;;0.70;0.70;;;;;;;;;;5016269;28;20420;-72
2022/07/03 13:29:00;;;;;;;0.90;0.90;;;;;;;;;;5016257;28;20769;-72
2022/07/03 13:31:26;;;;;;;1.80;0.73;;;;;;;;;;5015965;28;20437;-73
2022/07/03 13:33:52;;;;;;;0.80;0.80;;;;;;;;;;4998294;28;20440;-73
2022/07/03 13:36:18;;;;;;;3.37;0.80;;;;;;;;;;5015711;28;20429;-70
2022/07/03 13:38:44;;;;;;;1.10;1.10;;;;;;;;;;5016056;28;20421;-70
2022/07/03 13:41:10;;;;;;;2.40;1.07;;;;;;;;;;5015730;28;20959;-72
2022/07/03 13:43:36;;;;;;;2.10;0.70;;;;;;;;;;5015631;28;20556;-72
2022/07/03 13:46:03;;;;;;;2.57;0.90;;;;;;;;;;5015592;28;20408;-72
2022/07/03 13:48:29;;;;;;;0.90;0.90;;;;;;;;;;5015605;28;20471;-73
2022/07/03 13:50:55;;;;;;;2.53;0.80;;;;;;;;;;5015485;28;20428;-72
2022/07/03 13:53:21;;;;;;;0.83;0.83;;;;;;;;;;5015473;28;20417;-74
2022/07/03 13:55:47;;;;;;;4.77;0.80;;;;;;;;;;5015398;28;20420;-72
2022/07/03 13:58:13;;;;;;;0.80;0.80;;;;;;;;;;5015399;28;20166;-75
2022/07/03 14:00:39;;;;;;;1.83;0.90;;;;;;;;;;5015355;28;20397;-75
2022/07/03 14:03:05;;;;;;;0.80;0.70;;;;;;;;;;5015142;28;20493;-75
2022/07/03 14:05:31;;;;;;;2.10;0.60;;;;;;;;;;5015494;28;20884;-73
2022/07/03 14:07:57;;;;;;;2.17;0.90;;;;;;;;;;5015250;28;20428;-69
2022/07/03 14:10:25;;;;;;;1.57;1.03;;;;;;;;;;5015160;28;20907;-69
2022/07/03 14:12:51;;;;;;;0.83;0.83;;;;;;;;;;5015216;28;20412;-69
2022/07/03 14:15:17;;;;;;;0.70;0.70;;;;;;;;;;5015147;28;20401;-69
2022/07/03 14:17:43;;;;;;;0.90;0.90;;;;;;;;;;5015126;28;20410;-70
2022/07/03 14:20:10;;;;;;;2.00;0.90;;;;;;;;;;5015239;28;20404;-69
2022/07/03 14:22:36;;;;;;;0.90;0.90;;;;;;;;;;5014873;28;20468;-70
2022/07/03 14:25:02;;;;;;;1.70;0.80;;;;;;;;;;5014977;28;20401;-71
2022/07/03 14:32:58;;;;;;;0.60;0.60;;;;;;;;;;5014956;28;20404;-69
2022/07/03 14:35:25;;;;;;;0.80;0.80;;;;;;;;;;5014429;28;20409;-70
2022/07/03 14:37:51;;;;;;;0.70;0.70;;;;;;;;;;5014772;28;20401;-70
2022/07/03 14:40:17;;;;;;;0.80;0.80;;;;;;;;;;5014907;28;20399;-70
2022/07/03 14:42:43;;;;;;;1.23;0.80;;;;;;;;;;5014505;28;20472;-70
2022/07/03 14:45:09;;;;;;;0.93;0.93;;;;;;;;;;4996888;28;20409;-71
2022/07/03 14:47:36;;;;;;;0.87;0.87;;;;;;;;;;5014446;28;20449;-72
2022/07/03 14:50:02;;;;;;;2.00;0.97;;;;;;;;;;5014388;28;20500;-75
2022/07/03 14:52:28;;;;;;;1.53;0.80;;;;;;;;;;5014431;28;20559;-77
2022/07/03 14:54:56;;;;;;;2.00;0.70;;;;;;;;;;5014366;28;20873;-71
2022/07/03 14:57:38;;;;;;;3.80;0.90;;;;;;;;;;5014120;28;20413;-72
2022/07/03 15:00:09;;;;;;;1.23;0.90;;;;;;;;;;5014085;28;20413;-71
2022/07/03 15:02:44;;;;;;;1.27;0.67;;;;;;;;;;5013967;28;20489;-72
2022/07/03 15:05:11;;;;;;;1.77;0.90;;;;;;;;;;5014363;28;20779;-73